Time;durP1;ratioP1;P1;durP2;ratioP2;P2;SDS_P1;SDS_P2;PMS_P1;PMS_P2;Temp;Humidity;BMP_temperature;BMP_pressure;BME280_temperature;BME280_humidity;BME280_pressure;Samples;Min_cycle;Max_cycle;Signal;HPM_P1;HPM_P2
2022/08/20 00:01:30;;;;;;;17.33;6.03;;;;;;;;;;5113882;28;20043;-85
2022/08/20 00:03:57;;;;;;;15.05;6.13;;;;;;;;;;5113629;28;20042;-84
2022/08/20 00:06:23;;;;;;;18.73;6.32;;;;;;;;;;5113794;28;20102;-85
2022/08/20 00:08:50;;;;;;;17.85;5.95;;;;;;;;;;5113869;28;20370;-85
2022/08/20 00:11:19;;;;;;;15.68;5.82;;;;;;;;;;5114018;28;20015;-84
2022/08/20 00:13:46;;;;;;;15.05;6.53;;;;;;;;;;5113783;28;20055;-85
2022/08/20 00:16:13;;;;;;;12.77;6.32;;;;;;;;;;5114199;28;20020;-85
2022/08/20 00:18:40;;;;;;;19.17;6.55;;;;;;;;;;5113740;28;20043;-85
2022/08/20 00:21:08;;;;;;;16.30;6.55;;;;;;;;;;5113861;28;20039;-85
2022/08/20 00:23:38;;;;;;;15.27;6.55;;;;;;;;;;5113816;28;20024;-85
2022/08/20 00:26:05;;;;;;;17.23;6.80;;;;;;;;;;5115175;28;20020;-85
2022/08/20 00:28:31;;;;;;;16.63;5.68;;;;;;;;;;5117773;28;20362;-85
2022/08/20 00:30:58;;;;;;;18.13;6.47;;;;;;;;;;5117765;28;20015;-85
2022/08/20 00:33:24;;;;;;;19.00;6.40;;;;;;;;;;5117710;28;20578;-86
2022/08/20 00:35:53;;;;;;;13.20;6.13;;;;;;;;;;5117706;28;20031;-85
2022/08/20 00:38:20;;;;;;;17.15;6.30;;;;;;;;;;5117632;28;20028;-85
2022/08/20 00:40:48;;;;;;;14.65;6.32;;;;;;;;;;5117543;28;20455;-85
2022/08/20 00:43:30;;;;;;;15.13;7.53;;;;;;;;;;5117499;28;20363;-85
2022/08/20 00:45:57;;;;;;;16.63;6.73;;;;;;;;;;5117493;28;20020;-85
2022/08/20 00:48:24;;;;;;;17.40;6.05;;;;;;;;;;5117498;28;20020;-85
2022/08/20 00:50:51;;;;;;;15.07;6.45;;;;;;;;;;5117466;28;20111;-85
2022/08/20 00:53:18;;;;;;;13.80;6.57;;;;;;;;;;5117622;28;20474;-86
2022/08/20 00:55:45;;;;;;;13.18;5.60;;;;;;;;;;5117644;28;20073;-85
2022/08/20 00:58:11;;;;;;;18.85;6.40;;;;;;;;;;5117339;28;20026;-85
2022/08/20 01:00:43;;;;;;;16.02;6.45;;;;;;;;;;5117418;28;20049;-84
2022/08/20 01:03:11;;;;;;;14.23;5.93;;;;;;;;;;5118004;28;20019;-84
2022/08/20 01:05:38;;;;;;;14.55;5.82;;;;;;;;;;5118005;28;20047;-84
2022/08/20 01:08:05;;;;;;;22.00;6.40;;;;;;;;;;5117572;28;20451;-84
2022/08/20 01:10:37;;;;;;;17.23;7.50;;;;;;;;;;5117206;28;20451;-85
2022/08/20 01:13:08;;;;;;;15.43;6.30;;;;;;;;;;5117040;28;20339;-85
2022/08/20 01:15:36;;;;;;;22.65;7.25;;;;;;;;;;5117272;28;20024;-85
2022/08/20 01:18:04;;;;;;;14.43;6.45;;;;;;;;;;5116850;28;20370;-87
2022/08/20 01:20:32;;;;;;;14.70;6.05;;;;;;;;;;5116520;28;20092;-85
2022/08/20 01:25:54;;;;;;;13.25;6.60;;;614.80;2432.00;;;;;;5117727;28;20489;-85
2022/08/20 01:28:29;;;;;;;15.95;6.95;;;614.90;2432.00;;;;;;5116865;28;20027;-84
2022/08/20 01:30:55;;;;;;;13.73;6.57;;;614.60;2432.00;;;;;;5116812;28;20030;-85
2022/08/20 01:33:22;;;;;;;18.45;6.60;;;614.80;2432.00;;;;;;5116714;28;20016;-85
2022/08/20 01:35:49;;;;;;;17.23;6.93;;;614.80;2432.00;;;;;;5116833;28;20458;-85
2022/08/20 01:38:16;;;;;;;14.52;6.65;;;614.70;2432.00;;;;;;5132942;28;20008;-83
2022/08/20 01:41:00;;;;;;;17.25;8.23;;;614.90;2432.00;;;;;;5136486;28;20439;-84
2022/08/20 01:43:27;;;;;;;16.65;7.00;;;614.50;2432.00;;;;;;5119416;28;20027;-85
2022/08/20 01:45:53;;;;;;;12.80;6.65;;;614.80;2432.00;;;;;;5118419;28;20031;-86
2022/08/20 01:48:20;;;;;;;15.98;7.95;;;614.60;2432.00;;;;;;5117101;28;20027;-85
2022/08/20 01:50:54;;;;;;;19.77;7.68;;;589.70;2432.00;;;;;;5116360;28;20016;-86
2022/08/20 01:53:27;;;;;;;17.90;8.68;;;589.60;2432.00;;;;;;5116333;28;20458;-85
2022/08/20 01:55:53;;;;;;;16.25;7.05;;;589.70;2432.00;;;;;;5116413;28;20397;-85
2022/08/20 01:58:20;;;;;;;14.45;7.38;;;589.70;2432.00;;;;;;5116301;28;20027;-86
2022/08/20 02:00:46;;;;;;;16.00;6.45;;;614.60;2432.00;;;;;;5116164;28;20033;-86
2022/08/20 02:03:12;;;;;;;22.30;7.25;;;589.70;2432.00;;;;;;5116105;28;20031;-85
2022/08/20 02:05:39;;;;;;;13.63;7.45;;;614.40;2432.00;;;;;;5115922;28;20043;-85
2022/08/20 02:08:05;;;;;;;15.98;6.57;;;614.40;2432.00;;;;;;5116077;28;20019;-86
2022/08/20 02:10:31;;;;;;;18.73;7.45;;;614.40;2432.00;;;;;;5116470;28;20027;-86
2022/08/20 02:12:59;;;;;;;18.60;6.72;;;589.70;2432.00;;;;;;5116258;28;20023;-84
2022/08/20 02:15:25;;;;;;;19.05;7.00;;;589.40;2432.00;;;;;;5115976;28;20023;-86
2022/08/20 02:17:51;;;;;;;15.98;7.28;;;589.40;2432.00;;;;;;5115860;28;20053;-86
2022/08/20 02:20:24;;;;;;;17.98;7.63;;;589.50;2432.00;;;;;;5115926;28;20016;-85
2022/08/20 02:22:53;;;;;;;17.58;6.65;;;589.40;2432.00;;;;;;5115907;28;20023;-85
2022/08/20 02:25:22;;;;;;;17.67;7.75;;;589.60;2432.00;;;;;;5115624;28;20493;-86
2022/08/20 02:27:50;;;;;;;20.33;7.47;;;589.40;2432.00;;;;;;5115943;28;20023;-85
2022/08/20 02:30:32;;;;;;;19.33;7.65;;;589.40;2432.00;;;;;;5115512;28;20020;-86
2022/08/20 02:32:59;;;;;;;16.02;7.53;;;589.60;2432.00;;;;;;5115606;28;20015;-86
2022/08/20 02:35:25;;;;;;;14.35;6.68;;;589.60;2432.00;;;;;;5115582;28;20024;-85
2022/08/20 02:37:52;;;;;;;19.42;7.82;;;589.60;2432.00;;;;;;5115501;28;20478;-85
2022/08/20 02:40:21;;;;;;;16.60;8.05;;;589.60;2432.00;;;;;;5115154;28;20023;-85
2022/08/20 02:42:47;;;;;;;14.05;6.90;;;589.70;2432.00;;;;;;5115227;28;20076;-84
2022/08/20 02:45:16;;;;;;;13.75;6.60;;;589.70;2432.00;;;;;;5115264;28;20015;-85
2022/08/20 02:47:44;;;;;;;20.02;7.80;;;589.60;2432.00;;;;;;5114993;28;20012;-84
2022/08/20 02:50:13;;;;;;;15.25;7.53;;;589.50;2432.00;;;;;;5114486;28;20019;-85
2022/08/20 02:52:40;;;;;;;15.70;7.38;;;589.30;2432.00;;;;;;5115199;28;20020;-85
2022/08/20 02:55:07;;;;;;;14.13;7.63;;;589.50;2432.00;;;;;;5115367;28;20362;-86
2022/08/20 02:57:33;;;;;;;16.33;7.20;;;589.50;2432.00;;;;;;5115175;28;20132;-85
2022/08/20 03:00:00;;;;;;;18.70;8.52;;;589.50;2432.00;;;;;;5115164;28;20019;-85
2022/08/20 03:02:26;;;;;;;16.45;7.03;;;589.60;2432.00;;;;;;5115188;28;20099;-86
2022/08/20 03:04:52;;;;;;;15.73;7.38;;;589.60;2432.00;;;;;;5114403;28;20043;-85
2022/08/20 03:07:18;;;;;;;14.13;7.43;;;589.30;2432.00;;;;;;5114897;28;20020;-85
2022/08/20 03:09:44;;;;;;;12.98;6.88;;;589.20;2432.00;;;;;;5114684;28;20019;-85
2022/08/20 03:12:11;;;;;;;17.17;7.70;;;589.30;2432.00;;;;;;5114707;28;20054;-85
2022/08/20 03:14:37;;;;;;;13.82;7.90;;;589.50;2432.00;;;;;;5115012;28;20024;-86
2022/08/20 03:17:04;;;;;;;19.25;7.90;;;589.40;2432.00;;;;;;5114795;28;20114;-85
2022/08/20 03:19:30;;;;;;;13.23;6.88;;;589.40;2432.00;;;;;;5114485;28;20019;-85
2022/08/20 03:21:56;;;;;;;17.38;7.88;;;589.60;2432.00;;;;;;5114590;28;20015;-85
2022/08/20 03:24:22;;;;;;;14.43;7.47;;;589.60;2432.00;;;;;;5114494;28;20030;-85
2022/08/20 03:26:48;;;;;;;17.20;7.60;;;589.50;2432.00;;;;;;5114211;28;20012;-85
2022/08/20 03:29:14;;;;;;;13.50;6.68;;;589.40;2432.00;;;;;;5114227;28;20102;-85
2022/08/20 03:31:40;;;;;;;14.52;7.13;;;589.70;2432.00;;;;;;5114477;28;20054;-86
2022/08/20 03:34:06;;;;;;;16.40;7.07;;;589.70;2432.00;;;;;;5114439;28;20456;-85
2022/08/20 03:36:32;;;;;;;17.95;7.13;;;589.60;2432.00;;;;;;5114323;28;20107;-85
2022/08/20 03:39:01;;;;;;;19.33;7.53;;;589.50;2432.00;;;;;;5114384;28;20030;-86
2022/08/20 03:41:27;;;;;;;16.98;7.35;;;589.60;2432.00;;;;;;5114508;28;20051;-85
2022/08/20 03:43:53;;;;;;;15.27;7.55;;;589.70;2432.00;;;;;;5114272;28;20028;-85
2022/08/20 03:46:20;;;;;;;16.27;7.35;;;614.40;2432.00;;;;;;5114068;28;20161;-85
2022/08/20 03:48:46;;;;;;;15.25;7.30;;;614.50;2432.00;;;;;;5114219;28;20011;-85
2022/08/20 03:51:12;;;;;;;14.25;7.03;;;614.50;2432.00;;;;;;5114149;28;20015;-85
2022/08/20 03:53:38;;;;;;;18.10;8.23;;;614.50;2432.00;;;;;;5114269;28;20012;-84
2022/08/20 03:56:05;;;;;;;17.48;7.38;;;589.50;2432.00;;;;;;5114205;28;20015;-85
2022/08/20 03:58:33;;;;;;;13.27;7.13;;;589.60;2432.00;;;;;;5114141;28;20019;-85
2022/08/20 04:00:59;;;;;;;17.85;7.45;;;589.70;2432.00;;;;;;5113892;28;20016;-85
2022/08/20 04:03:26;;;;;;;15.18;8.10;;;589.50;2432.00;;;;;;5113691;28;20039;-83
2022/08/20 04:05:52;;;;;;;15.00;7.80;;;589.40;2432.00;;;;;;5113646;28;20471;-86
2022/08/20 04:08:21;;;;;;;19.25;8.88;;;589.50;2432.00;;;;;;5114066;28;20050;-85
2022/08/20 04:10:49;;;;;;;21.63;10.02;;;589.30;2432.00;;;;;;5114098;28;20466;-86
2022/08/20 04:13:16;;;;;;;20.75;9.13;;;589.20;2432.00;;;;;;5113868;28;20076;-85
2022/08/20 04:15:44;;;;;;;17.27;8.07;;;589.20;2432.00;;;;;;5113973;28;20019;-85
2022/08/20 04:18:11;;;;;;;20.92;8.25;;;589.30;2432.00;;;;;;5114099;28;20390;-85
2022/08/20 04:20:40;;;;;;;17.27;7.03;;;589.20;2432.00;;;;;;5113918;28;20016;-85
2022/08/20 04:23:09;;;;;;;13.60;7.13;;;589.20;2432.00;;;;;;5114173;28;20020;-85
2022/08/20 04:25:39;;;;;;;21.85;8.43;;;589.20;2432.00;;;;;;5114031;28;20016;-86
2022/08/20 04:28:09;;;;;;;15.23;7.75;;;589.50;2432.00;;;;;;5114024;28;20106;-86
2022/08/20 04:30:35;;;;;;;14.60;7.90;;;589.50;2432.00;;;;;;5113781;28;20019;-86
2022/08/20 04:33:01;;;;;;;16.48;7.90;;;589.70;2432.00;;;;;;5114008;28;20016;-86
2022/08/20 04:35:29;;;;;;;22.38;9.20;;;589.60;2432.00;;;;;;5113615;28;20077;-84
2022/08/20 04:38:12;;;;;;;14.45;7.63;;;589.70;2432.00;;;;;;5113840;28;20042;-87
2022/08/20 04:40:56;;;;;;;20.33;9.30;;;589.50;2432.00;;;;;;5113837;28;20020;-86
2022/08/20 04:43:49;;;;;;;19.77;9.43;;;589.40;2432.00;;;;;;5118536;28;20015;-84
2022/08/20 04:46:15;;;;;;;14.43;8.02;;;589.40;2432.00;;;;;;5114883;28;20042;-83
2022/08/20 04:48:40;;;;;;;26.25;9.75;;;589.40;2432.00;;;;;;5119916;28;20042;-82
2022/08/20 04:51:07;;;;;;;21.45;10.38;;;589.50;2432.00;;;;;;5113950;28;20451;-85
2022/08/20 04:53:33;;;;;;;17.13;8.80;;;589.30;2432.00;;;;;;5113132;28;20477;-86
2022/08/20 04:56:00;;;;;;;20.00;9.73;;;589.50;2432.00;;;;;;5113206;28;20198;-85
2022/08/20 04:58:32;;;;;;;23.10;9.93;;;589.70;2432.00;;;;;;5113323;28;20022;-84
2022/08/20 05:01:09;;;;;;;24.60;11.68;;;589.50;2432.00;;;;;;5113264;28;20012;-81
2022/08/20 05:03:40;;;;;;;21.13;8.95;;;589.50;2432.00;;;;;;5112582;28;20026;-81
2022/08/20 05:06:07;;;;;;;17.08;9.25;;;589.40;2432.00;;;;;;5112683;28;20076;-81
2022/08/20 05:08:34;;;;;;;18.13;8.25;;;589.40;2432.00;;;;;;5112253;28;20467;-81
2022/08/20 05:11:01;;;;;;;15.48;8.18;;;589.30;2432.00;;;;;;5112606;28;20435;-80
2022/08/20 05:13:27;;;;;;;17.17;9.30;;;589.20;2432.00;;;;;;5116487;28;20024;-83
2022/08/20 05:15:55;;;;;;;23.42;9.55;;;589.20;2432.00;;;;;;5116363;28;20073;-82
2022/08/20 05:18:24;;;;;;;15.98;8.90;;;589.30;2432.00;;;;;;5116634;28;20085;-82
2022/08/20 05:20:50;;;;;;;16.58;8.70;;;589.20;2432.00;;;;;;5116270;28;20460;-82
2022/08/20 05:23:18;;;;;;;27.58;16.77;;;589.30;2432.00;;;;;;5115953;28;20022;-82
2022/08/20 05:25:47;;;;;;;22.98;10.25;;;589.40;2432.00;;;;;;5115991;28;20034;-80
2022/08/20 05:28:20;;;;;;;23.85;10.18;;;589.60;2432.00;;;;;;5115723;28;20055;-82
2022/08/20 05:30:48;;;;;;;16.40;8.43;;;589.70;2432.00;;;;;;5116262;28;20048;-82
2022/08/20 05:33:17;;;;;;;19.75;9.48;;;589.70;2432.00;;;;;;5115795;28;20034;-82
2022/08/20 05:35:43;;;;;;;15.20;9.27;;;589.70;2432.00;;;;;;5115893;28;20499;-82
2022/08/20 05:38:11;;;;;;;18.58;10.13;;;614.40;2432.00;;;;;;5115812;28;20019;-80
2022/08/20 05:40:39;;;;;;;16.50;9.30;;;614.50;2432.00;;;;;;5115077;28;20024;-80
2022/08/20 05:43:06;;;;;;;22.00;10.85;;;614.70;2432.00;;;;;;5115293;28;20453;-81
2022/08/20 05:45:36;;;;;;;17.75;9.02;;;614.80;2432.00;;;;;;5115430;28;20028;-82
2022/08/20 05:48:12;;;;;;;15.35;9.52;;;614.80;2432.00;;;;;;5115735;28;20024;-83
2022/08/20 05:50:39;;;;;;;18.50;8.68;;;615.00;2432.00;;;;;;5115481;28;20114;-82
2022/08/20 05:53:05;;;;;;;17.48;10.30;;;615.10;2432.00;;;;;;5115437;28;20438;-82
2022/08/20 05:55:31;;;;;;;13.98;9.25;;;615.20;2432.00;;;;;;5115312;28;20024;-82
2022/08/20 05:57:58;;;;;;;17.90;8.90;;;615.30;2432.00;;;;;;5114951;28;20453;-81
2022/08/20 06:00:25;;;;;;;22.67;10.85;;;615.30;2432.00;;;;;;5105257;28;20043;-82
2022/08/20 06:05:39;;;;;;;16.20;8.77;;;640.10;2432.00;;;;;;5097407;28;20097;-91
2022/08/20 06:08:10;;;;;;;18.35;8.60;;;640.10;2432.00;;;;;;5095791;28;20024;-89
2022/08/20 06:10:42;;;;;;;19.42;8.95;;;640.20;2432.00;;;;;;5095872;28;20070;-88
2022/08/20 06:13:09;;;;;;;13.50;7.60;;;640.20;2432.00;;;;;;5095879;28;20026;-90
2022/08/20 06:15:36;;;;;;;16.65;8.45;;;640.20;2432.00;;;;;;5095879;28;20043;-91
2022/08/20 06:18:06;;;;;;;16.73;8.93;;;640.50;2432.00;;;;;;5095407;28;20020;-89
2022/08/20 06:20:59;;;;;;;19.77;8.05;;;640.20;2432.00;;;;;;5095761;28;20024;-90
2022/08/20 06:23:25;;;;;;;;;;;640.30;2432.00;;;;;;5095996;28;20051;-90
2022/08/20 06:25:54;;;;;;;19.52;8.98;;;666.10;2432.00;;;;;;5095529;28;19908;-89
2022/08/20 06:28:23;;;;;;;19.20;8.65;;;640.20;2432.00;;;;;;5117185;28;20027;-90
2022/08/20 06:30:50;;;;;;;17.25;9.45;;;640.50;2432.00;;;;;;5119444;28;20020;-89
2022/08/20 06:33:16;;;;;;;16.20;7.78;;;640.70;2432.00;;;;;;5102671;28;20052;-91
2022/08/20 06:35:48;;;;;;;22.23;8.02;;;640.50;2432.00;;;;;;5101023;28;20616;-88
2022/08/20 06:38:24;;;;;;;25.25;9.98;;;691.60;2432.00;;;;;;5103470;28;20023;-89
2022/08/20 06:40:58;;;;;;;14.45;8.40;;;640.50;2432.00;;;;;;5102287;28;20028;-88
2022/08/20 06:43:27;;;;;;;17.48;8.15;;;640.60;2432.00;;;;;;5096386;28;20031;-91
2022/08/20 06:45:56;;;;;;;17.40;8.50;;;640.80;2432.00;;;;;;5094884;28;20032;-88
2022/08/20 06:48:30;;;;;;;20.73;8.88;;;665.60;2432.00;;;;;;5095094;28;20043;-91
2022/08/20 06:50:57;;;;;;;20.13;8.82;;;665.70;2432.00;;;;;;5095197;28;20024;-91
2022/08/20 06:53:57;;;;;;;19.83;8.40;;;665.70;2432.00;;;;;;5096380;28;20354;-90
2022/08/20 06:56:52;;;;;;;15.77;8.07;;;665.90;2432.00;;;;;;5073413;28;20167;-90
2022/08/20 07:03:30;;;;;;;;;;;;;;;;;;;;;
2022/08/20 07:06:06;;;;;;;16.63;7.75;;;666.50;2432.00;;;;;;5072880;28;20044;-89
2022/08/20 07:08:52;;;;;;;19.70;8.05;;;691.20;2432.00;;;;;;5057856;28;20031;-92
2022/08/20 07:11:35;;;;;;;17.60;8.00;;;691.30;2432.00;;;;;;5059086;28;20151;-89
2022/08/20 07:14:07;;;;;;;21.50;6.97;;;691.40;2432.00;;;;;;5057490;28;20047;-90
2022/08/20 07:16:55;;;;;;;15.10;8.60;;;691.40;2432.00;;;;;;5056482;28;20044;-91
2022/08/20 07:22:34;;;;;;;16.02;7.20;;;691.40;2432.00;;;;;;5073620;28;20051;-91
2022/08/20 07:25:37;;;;;;;;;;;;;;;;;;;;;
2022/08/20 07:28:19;;;;;;;20.90;7.35;;;691.20;2432.00;;;;;;5043471;28;20032;-89
2022/08/20 07:34:13;;;;;;;14.98;7.10;;;666.50;2432.00;;;;;;5111511;28;20042;-87
2022/08/20 07:36:49;;;;;;;14.27;7.18;;;666.30;2432.00;;;;;;5114857;28;20020;-89
2022/08/20 07:39:15;;;;;;;14.50;7.25;;;666.20;2432.00;;;;;;5114750;28;20026;-88
2022/08/20 07:41:41;;;;;;;18.80;7.10;;;666.40;2432.00;;;;;;5115708;28;20026;-86
2022/08/20 07:44:13;;;;;;;18.20;7.28;;;666.10;2432.00;;;;;;5113621;28;20020;-86
2022/08/20 07:46:39;;;;;;;16.27;7.55;;;666.10;2432.00;;;;;;5114359;28;20076;-86
2022/08/20 07:49:08;;;;;;;17.08;7.60;;;666.00;2432.00;;;;;;5114253;28;20019;-90
2022/08/20 07:51:35;;;;;;;18.92;6.50;;;666.00;2432.00;;;;;;5114820;28;20069;-92
2022/08/20 07:54:01;;;;;;;18.75;7.40;;;666.00;2432.00;;;;;;5116236;28;20520;-89
2022/08/20 07:56:28;;;;;;;13.45;8.35;;;666.00;2432.00;;;;;;5114042;28;20073;-90
2022/08/20 07:58:57;;;;;;;15.95;9.38;;;665.90;2432.00;;;;;;5114413;28;20076;-89
2022/08/20 08:02:10;;;;;;;12.07;6.45;;;665.70;2432.00;;;;;;5114581;28;20019;-92
2022/08/20 08:05:24;;;;;;;;;;;;;;;;;;;;;
2022/08/20 08:08:04;;;;;;;18.35;6.18;;;665.70;2432.00;;;;;;5024473;28;20030;-89
2022/08/20 08:14:20;;;;;;;20.05;8.48;;;665.70;2432.00;;;;;;5078396;28;20027;-89
2022/08/20 08:17:18;;;;;;;19.60;7.87;;;665.70;2432.00;;;;;;5113396;28;20026;-91
2022/08/20 08:19:53;;;;;;;16.95;7.45;;;640.90;2432.00;;;;;;5113624;28;20016;-89
2022/08/20 08:22:19;;;;;;;15.57;7.35;;;640.60;2432.00;;;;;;5114089;28;20466;-90
2022/08/20 08:25:03;;;;;;;17.38;9.00;;;640.40;2432.00;;;;;;5113526;28;20068;-87
2022/08/20 08:27:34;;;;;;;20.08;11.25;;;640.10;2432.00;;;;;;5113679;28;20051;-87
2022/08/20 08:34:02;;;;;;;25.55;13.15;;;614.90;2432.00;;;;;;5031863;28;20022;-88
2022/08/20 08:46:58;;;;;;;27.10;12.50;;;614.50;2432.00;;;;;;5032116;28;20152;-85
2022/08/20 08:53:07;;;;;;;20.27;10.82;;;589.40;2432.00;;;;;;5046641;28;20021;-86
2022/08/20 08:55:54;;;;;;;20.83;9.40;;;589.30;2432.00;;;;;;5116637;28;20394;-85
2022/08/20 08:58:22;;;;;;;23.08;8.57;;;589.20;2432.00;;;;;;5116856;28;20114;-85
2022/08/20 09:00:53;;;;;;;15.50;7.85;;;589.00;2432.00;;;;;;5117274;28;20043;-85
2022/08/20 09:03:31;;;;;;;16.83;9.52;;;589.00;2432.00;;;;;;5117375;28;20020;-85
2022/08/20 09:06:03;;;;;;;20.35;9.00;;;588.80;2432.00;;;;;;5116652;28;20043;-85
2022/08/20 09:08:47;;;;;;;20.17;9.00;;;588.80;2432.00;;;;;;5100367;28;20467;-84
2022/08/20 09:11:15;;;;;;;17.20;8.13;;;588.80;2432.00;;;;;;5117204;28;20019;-85
2022/08/20 09:13:42;;;;;;;19.00;7.65;;;588.80;2432.00;;;;;;5116379;28;20072;-85
2022/08/20 09:16:08;;;;;;;20.35;8.82;;;589.00;2432.00;;;;;;5116466;28;20019;-83
2022/08/20 09:18:37;;;;;;;20.40;7.32;;;588.90;2432.00;;;;;;5116880;28;20015;-86
2022/08/20 09:21:06;;;;;;;17.58;8.15;;;588.80;2432.00;;;;;;5116497;28;20049;-87
2022/08/20 09:23:33;;;;;;;20.95;8.05;;;588.80;2432.00;;;;;;5116692;28;20072;-84
2022/08/20 09:26:00;;;;;;;21.08;8.07;;;589.00;2432.00;;;;;;5116459;28;20015;-85
2022/08/20 09:28:26;;;;;;;20.92;8.00;;;564.10;2432.00;;;;;;5116807;28;20026;-84
2022/08/20 09:30:52;;;;;;;21.15;8.50;;;564.10;2432.00;;;;;;5116478;28;20015;-85
2022/08/20 09:33:18;;;;;;;26.33;8.98;;;588.90;2432.00;;;;;;5116318;28;20022;-84
2022/08/20 09:35:45;;;;;;;17.80;7.47;;;588.80;2432.00;;;;;;5116668;28;20089;-85
2022/08/20 09:38:11;;;;;;;16.17;6.22;;;564.10;2432.00;;;;;;5116558;28;20122;-84
2022/08/20 09:40:37;;;;;;;25.73;8.02;;;564.10;2432.00;;;;;;5116225;28;20023;-86
2022/08/20 09:43:07;;;;;;;17.73;7.53;;;588.90;2432.00;;;;;;5116654;28;20027;-85
2022/08/20 09:45:35;;;;;;;16.92;7.63;;;588.90;2432.00;;;;;;5116109;28;20103;-85
2022/08/20 09:48:02;;;;;;;19.35;8.18;;;589.10;2432.00;;;;;;5115809;28;20024;-84
2022/08/20 09:50:32;;;;;;;17.98;8.55;;;589.10;2432.00;;;;;;5116384;28;20012;-85
2022/08/20 09:53:01;;;;;;;14.65;9.77;;;588.80;2432.00;;;;;;5116427;28;20465;-84
2022/08/20 09:55:36;;;;;;;18.40;9.85;;;588.80;2432.00;;;;;;5115925;28;20023;-84
2022/08/20 09:58:07;;;;;;;29.30;17.90;;;588.80;2432.00;;;;;;5115730;28;20114;-84
2022/08/20 10:00:33;;;;;;;20.75;13.45;;;589.00;2432.00;;;;;;5121017;28;20019;-82
2022/08/20 10:03:00;;;;;;;19.83;11.13;;;589.10;2432.00;;;;;;5126881;28;20494;-83
2022/08/20 10:05:26;;;;;;;19.08;11.10;;;564.10;2432.00;;;;;;5124050;28;20050;-84
2022/08/20 10:07:52;;;;;;;17.98;11.52;;;564.10;2432.00;;;;;;5119826;28;20110;-84
2022/08/20 10:10:21;;;;;;;21.98;11.15;;;563.90;2432.00;;;;;;5116109;28;20020;-85
2022/08/20 10:12:47;;;;;;;22.38;9.73;;;564.10;2432.00;;;;;;5115934;28;20049;-84
2022/08/20 10:15:13;;;;;;;20.50;9.43;;;588.80;2432.00;;;;;;5115629;28;20366;-85
2022/08/20 10:17:41;;;;;;;22.90;9.40;;;588.80;2432.00;;;;;;5115916;28;20016;-84
2022/08/20 10:20:10;;;;;;;14.98;8.43;;;588.90;2432.00;;;;;;5115823;28;20058;-85
2022/08/20 10:22:36;;;;;;;20.98;9.07;;;588.80;2432.00;;;;;;5115597;28;20478;-84
2022/08/20 10:25:03;;;;;;;19.52;10.02;;;588.80;2432.00;;;;;;5115776;28;20027;-83
2022/08/20 10:27:28;;;;;;;14.23;7.82;;;564.10;2432.00;;;;;;5115766;28;20022;-84
2022/08/20 10:29:54;;;;;;;16.35;8.65;;;588.80;2432.00;;;;;;5115160;28;20015;-84
2022/08/20 10:32:20;;;;;;;20.75;9.30;;;588.80;2432.00;;;;;;5098293;28;20036;-85
2022/08/20 10:34:46;;;;;;;17.83;8.10;;;588.90;2432.00;;;;;;5115635;28;20026;-84
2022/08/20 10:37:19;;;;;;;16.27;7.70;;;589.00;2432.00;;;;;;5115096;28;20032;-84
2022/08/20 10:39:46;;;;;;;14.20;7.97;;;589.10;2432.00;;;;;;5115441;28;20027;-85
2022/08/20 10:42:12;;;;;;;17.27;7.55;;;589.20;2432.00;;;;;;5115642;28;20447;-84
2022/08/20 10:44:39;;;;;;;13.57;7.35;;;589.20;2432.00;;;;;;5115093;28;20549;-84
2022/08/20 10:47:26;;;;;;;15.25;7.13;;;589.20;2432.00;;;;;;5115377;28;20023;-86
2022/08/20 10:49:54;;;;;;;19.35;6.72;;;589.30;2432.00;;;;;;5115091;28;20388;-84
2022/08/20 10:52:20;;;;;;;12.50;6.07;;;589.40;2432.00;;;;;;5115162;28;20015;-84
2022/08/20 10:54:46;;;;;;;14.52;7.40;;;589.40;2432.00;;;;;;5115154;28;20515;-84
2022/08/20 10:57:16;;;;;;;13.48;7.20;;;589.30;2432.00;;;;;;5114598;28;20024;-84
2022/08/20 10:59:43;;;;;;;13.52;6.75;;;589.40;2432.00;;;;;;5115136;28;20027;-86
2022/08/20 11:02:09;;;;;;;14.15;6.70;;;589.40;2432.00;;;;;;5115018;28;20021;-86
2022/08/20 11:04:35;;;;;;;14.40;7.88;;;589.40;2432.00;;;;;;5114476;28;20024;-85
2022/08/20 11:07:29;;;;;;;15.30;7.18;;;589.50;2432.00;;;;;;5114861;28;20477;-86
2022/08/20 11:09:56;;;;;;;13.73;8.23;;;589.50;2432.00;;;;;;5114297;28;20019;-86
2022/08/20 11:12:23;;;;;;;14.38;8.32;;;589.50;2432.00;;;;;;5114665;28;20012;-87
2022/08/20 11:14:50;;;;;;;15.25;8.32;;;589.50;2432.00;;;;;;5114563;28;20088;-87
2022/08/20 11:17:31;;;;;;;14.88;8.10;;;589.40;2432.00;;;;;;5114859;28;20110;-86
2022/08/20 11:19:58;;;;;;;14.45;8.73;;;589.40;2432.00;;;;;;5114564;28;20019;-87
2022/08/20 11:22:25;;;;;;;15.63;8.55;;;589.40;2432.00;;;;;;5114756;28;20020;-86
2022/08/20 11:24:51;;;;;;;15.35;9.88;;;589.40;2432.00;;;;;;5114333;28;20020;-85
2022/08/20 11:27:23;;;;;;;19.70;11.02;;;589.40;2432.00;;;;;;5114870;28;20381;-86
2022/08/20 11:29:50;;;;;;;21.75;10.77;;;589.30;2432.00;;;;;;5114589;28;20027;-85
2022/08/20 11:32:17;;;;;;;20.05;10.82;;;614.40;2432.00;;;;;;5113773;28;20459;-86
2022/08/20 11:34:43;;;;;;;19.67;11.75;;;589.00;2432.00;;;;;;5114135;28;20047;-86
2022/08/20 11:37:10;;;;;;;25.65;10.30;;;589.00;2432.00;;;;;;5113840;28;20020;-85
2022/08/20 11:39:36;;;;;;;20.23;10.50;;;589.20;2432.00;;;;;;5114002;28;20455;-83
2022/08/20 11:42:02;;;;;;;22.65;10.73;;;589.40;2432.00;;;;;;5114187;28;20036;-83
2022/08/20 11:44:29;;;;;;;19.60;9.90;;;589.50;2432.00;;;;;;5113916;28;20024;-84
2022/08/20 11:46:58;;;;;;;18.90;10.90;;;589.70;2432.00;;;;;;5115101;28;20446;-83
2022/08/20 11:49:24;;;;;;;19.10;10.32;;;614.40;2432.00;;;;;;5113717;28;20031;-85
2022/08/20 11:51:53;;;;;;;19.00;10.88;;;614.60;2432.00;;;;;;5114223;28;20023;-88
2022/08/20 11:54:19;;;;;;;17.02;9.77;;;614.80;2432.00;;;;;;5113776;28;20012;-85
2022/08/20 11:56:45;;;;;;;23.30;14.05;;;615.00;2432.00;;;;;;5113568;28;20109;-84
2022/08/20 11:59:11;;;;;;;27.30;14.13;;;614.80;2432.00;;;;;;5113005;28;20058;-83
2022/08/20 12:01:36;;;;;;;22.83;12.95;;;614.90;2432.00;;;;;;5103126;28;20582;-84
2022/08/20 12:04:02;;;;;;;17.50;10.45;;;614.70;2432.00;;;;;;5101850;28;20413;-84
2022/08/20 12:06:29;;;;;;;17.75;8.30;;;614.70;2432.00;;;;;;5093354;28;20054;-82
2022/08/20 12:08:56;;;;;;;30.33;12.35;;;614.70;2432.00;;;;;;5093719;28;20543;-86
2022/08/20 12:11:22;;;;;;;19.88;8.77;;;614.70;2432.00;;;;;;5093721;28;20458;-86
2022/08/20 12:13:48;;;;;;;17.48;8.38;;;614.80;2432.00;;;;;;5093632;28;20026;-87
2022/08/20 12:16:15;;;;;;;17.33;8.43;;;614.80;2432.00;;;;;;5093691;28;20023;-85
2022/08/20 12:18:41;;;;;;;18.83;9.18;;;614.90;2432.00;;;;;;5093491;28;20024;-86
2022/08/20 12:21:07;;;;;;;18.95;11.07;;;615.20;2432.00;;;;;;5095229;28;20501;-86
2022/08/20 12:23:33;;;;;;;16.27;9.52;;;640.00;2432.00;;;;;;5097818;28;20073;-86
2022/08/20 12:26:02;;;;;;;16.38;9.18;;;640.00;2432.00;;;;;;5097545;28;20111;-86
2022/08/20 12:28:29;;;;;;;20.27;9.50;;;640.10;2432.00;;;;;;5097535;28;20051;-86
2022/08/20 12:30:56;;;;;;;21.15;8.98;;;640.40;2432.00;;;;;;5097270;28;20027;-86
2022/08/20 12:33:22;;;;;;;14.52;9.15;;;640.60;2432.00;;;;;;5102535;28;20070;-86
2022/08/20 12:35:48;;;;;;;17.30;9.02;;;640.60;2432.00;;;;;;5117929;28;20120;-86
2022/08/20 12:38:14;;;;;;;15.52;8.65;;;640.60;2432.00;;;;;;5117845;28;20116;-85
2022/08/20 12:40:40;;;;;;;25.63;10.85;;;640.60;2432.00;;;;;;5128157;28;20026;-85
2022/08/20 12:43:07;;;;;;;17.42;9.77;;;640.60;2432.00;;;;;;5142202;28;20008;-85
2022/08/20 12:45:34;;;;;;;15.40;9.15;;;640.70;2432.00;;;;;;5142201;28;20020;-84
2022/08/20 12:48:04;;;;;;;20.27;9.95;;;640.80;2432.00;;;;;;5137579;28;20020;-85
2022/08/20 12:50:30;;;;;;;21.52;9.32;;;665.70;2432.00;;;;;;5097547;28;20024;-85
2022/08/20 12:52:56;;;;;;;18.27;10.30;;;666.00;2432.00;;;;;;5115804;28;20080;-85
2022/08/20 12:55:23;;;;;;;17.40;9.88;;;666.10;2432.00;;;;;;5117637;28;20086;-84
2022/08/20 12:57:55;;;;;;;20.10;9.32;;;666.30;2432.00;;;;;;5117609;28;20024;-85
2022/08/20 13:00:27;;;;;;;13.88;8.60;;;691.20;2432.00;;;;;;5117026;28;20019;-85
2022/08/20 13:02:54;;;;;;;14.02;9.18;;;691.30;2432.00;;;;;;5117185;28;20069;-85
2022/08/20 13:05:30;;;;;;;16.95;8.93;;;691.60;2432.00;;;;;;5117163;28;20112;-88
2022/08/20 13:07:57;;;;;;;23.75;9.50;;;691.60;2432.00;;;;;;5117298;28;20053;-85
2022/08/20 13:10:29;;;;;;;28.52;11.48;;;666.10;2432.00;;;;;;5117204;28;20076;-85
2022/08/20 13:13:01;;;;;;;15.38;8.88;;;691.70;2432.00;;;;;;5116851;28;20568;-85